Time;durP1;ratioP1;P1;durP2;ratioP2;P2;SDS_P1;SDS_P2;PMS_P1;PMS_P2;Temp;Humidity;BMP_temperature;BMP_pressure;BME280_temperature;BME280_humidity;BME280_pressure;Samples;Min_cycle;Max_cycle;Signal;HPM_P1;HPM_P2
2021/10/21 00:00:18;;;;;;;93.47;26.27;;;;;;;;;;5003028;28;20453;-92
2021/10/21 00:02:44;;;;;;;112.23;28.70;;;;;;;;;;5003516;28;20453;-92
2021/10/21 00:05:11;;;;;;;90.60;23.47;;;;;;;;;;5001830;28;20463;-93
2021/10/21 00:07:39;;;;;;;92.87;24.60;;;;;;;;;;5001333;28;20491;-93
2021/10/21 00:10:06;;;;;;;87.50;23.73;;;;;;;;;;5002254;28;20485;-93
2021/10/21 00:12:33;;;;;;;102.93;30.07;;;;;;;;;;5002545;28;20452;-92
2021/10/21 00:15:00;;;;;;;100.30;29.90;;;;;;;;;;5002631;28;20449;-93
2021/10/21 00:17:26;;;;;;;102.20;30.30;;;;;;;;;;5001994;28;20500;-93
2021/10/21 00:19:53;;;;;;;94.37;26.10;;;;;;;;;;4993272;28;20465;-93
2021/10/21 00:22:19;;;;;;;90.80;24.27;;;;;;;;;;4987273;28;20491;-92
2021/10/21 00:24:47;;;;;;;90.80;25.10;;;;;;;;;;5001413;28;20452;-92
2021/10/21 00:27:14;;;;;;;90.37;25.13;;;;;;;;;;5000615;28;20445;-93
2021/10/21 00:29:40;;;;;;;91.70;24.97;;;;;;;;;;5001893;28;21212;-94
2021/10/21 00:32:07;;;;;;;96.90;28.50;;;;;;;;;;5003295;28;20488;-93
2021/10/21 00:34:33;;;;;;;97.03;27.10;;;;;;;;;;5001962;28;20472;-93
2021/10/21 00:37:00;;;;;;;94.27;27.00;;;;;;;;;;5000974;28;20934;-93
2021/10/21 00:39:27;;;;;;;104.43;32.20;;;;;;;;;;5001871;28;20503;-94
2021/10/21 00:41:54;;;;;;;98.50;27.10;;;;;;;;;;5002301;28;20484;-93
2021/10/21 00:44:21;;;;;;;97.03;26.90;;;;;;;;;;5002026;28;20452;-94
2021/10/21 00:46:48;;;;;;;91.50;25.53;;;;;;;;;;5002136;28;20488;-93
2021/10/21 00:49:15;;;;;;;94.40;27.30;;;;;;;;;;5001303;28;20460;-93
2021/10/21 00:51:42;;;;;;;94.17;25.10;;;;;;;;;;5001679;28;20481;-94
2021/10/21 00:54:09;;;;;;;96.40;27.93;;;;;;;;;;5000943;28;20510;-94
2021/10/21 00:56:36;;;;;;;94.77;27.67;;;;;;;;;;5002352;28;20457;-94
2021/10/21 00:59:04;;;;;;;97.00;27.70;;;;;;;;;;5001864;28;20500;-93
2021/10/21 01:01:33;;;;;;;96.60;27.90;;;;;;;;;;5000780;28;21016;-93
2021/10/21 01:03:59;;;;;;;95.37;25.47;;;;;;;;;;5000723;28;20991;-93
2021/10/21 01:06:26;;;;;;;97.67;29.23;;;;;;;;;;4995029;28;20492;-94
2021/10/21 01:08:53;;;;;;;97.30;28.57;;;;;;;;;;4997852;28;20469;-93
2021/10/21 01:11:20;;;;;;;97.73;29.20;;;;;;;;;;5000849;28;20558;-93
2021/10/21 01:13:47;;;;;;;93.30;27.57;;;;;;;;;;5002074;28;20484;-93
2021/10/21 01:16:16;;;;;;;93.23;25.90;;;;;;;;;;5001773;28;20452;-93
2021/10/21 01:18:42;;;;;;;96.50;27.03;;;;;;;;;;5001519;28;20531;-93
2021/10/21 01:21:11;;;;;;;97.53;26.93;;;;;;;;;;4995329;28;20483;-93
2021/10/21 01:23:38;;;;;;;95.33;27.57;;;;;;;;;;4999266;28;20460;-93
2021/10/21 01:26:07;;;;;;;91.90;24.70;;;;;;;;;;5002109;28;20452;-93
2021/10/21 01:28:34;;;;;;;92.87;26.27;;;;;;;;;;5001805;28;20456;-93
2021/10/21 01:31:00;;;;;;;100.70;27.27;;;;;;;;;;5001540;28;20456;-93
2021/10/21 01:33:27;;;;;;;91.50;25.17;;;;;;;;;;5002815;28;20452;-93
2021/10/21 01:35:53;;;;;;;90.23;25.07;;;;;;;;;;5004544;28;20468;-93
2021/10/21 01:38:21;;;;;;;103.30;30.00;;;;;;;;;;5004982;28;20890;-93
2021/10/21 01:40:48;;;;;;;93.40;25.73;;;;;;;;;;5004944;28;20853;-93
2021/10/21 01:43:14;;;;;;;90.47;24.43;;;;;;;;;;5003784;28;20507;-93
2021/10/21 01:45:41;;;;;;;89.57;23.20;;;;;;;;;;5005079;28;20465;-93
2021/10/21 01:48:07;;;;;;;91.10;25.30;;;;;;;;;;5004856;28;20453;-93
2021/10/21 01:50:34;;;;;;;92.27;25.23;;;;;;;;;;5003342;28;20469;-92
2021/10/21 01:53:01;;;;;;;92.20;25.43;;;;;;;;;;5003198;28;20515;-93
2021/10/21 01:55:29;;;;;;;101.73;26.30;;;;;;;;;;5005114;28;20441;-92
2021/10/21 01:57:55;;;;;;;92.30;25.50;;;;;;;;;;5005727;28;20524;-94
2021/10/21 02:00:23;;;;;;;97.03;28.63;;;;;;;;;;5004855;28;20958;-94
2021/10/21 02:02:49;;;;;;;98.47;26.97;;;;;;;;;;5005366;28;20480;-94
2021/10/21 02:05:17;;;;;;;93.77;24.50;;;;;;;;;;5004667;28;20473;-94
2021/10/21 02:07:44;;;;;;;92.60;24.33;;;;;;;;;;5005164;28;20449;-94
2021/10/21 02:10:11;;;;;;;95.13;25.20;;;;;;;;;;5004721;28;20488;-94
2021/10/21 02:12:39;;;;;;;91.17;25.30;;;;;;;;;;5003716;28;20453;-93
2021/10/21 02:15:06;;;;;;;100.43;28.87;;;;;;;;;;5004122;28;20449;-93
2021/10/21 02:17:32;;;;;;;98.50;28.10;;;;;;;;;;5003911;28;20539;-93
2021/10/21 02:19:59;;;;;;;95.90;26.30;;;;;;;;;;5002672;28;20463;-93
2021/10/21 02:22:25;;;;;;;92.63;24.73;;;;;;;;;;4982472;28;20466;-93
2021/10/21 02:24:52;;;;;;;98.37;27.90;;;;;;;;;;5000548;28;20465;-94
2021/10/21 02:27:18;;;;;;;96.70;28.10;;;;;;;;;;5003954;28;20448;-93
2021/10/21 02:29:46;;;;;;;102.33;26.93;;;;;;;;;;5004205;28;20458;-93
2021/10/21 02:32:12;;;;;;;94.17;25.30;;;;;;;;;;5004461;28;21153;-93
2021/10/21 02:34:39;;;;;;;99.97;29.13;;;;;;;;;;5004243;28;20453;-94
2021/10/21 02:37:06;;;;;;;121.23;32.37;;;;;;;;;;5002899;28;20495;-94
2021/10/21 02:39:32;;;;;;;137.07;29.40;;;;;;;;;;5002738;28;20500;-93
2021/10/21 02:41:58;;;;;;;129.67;28.70;;;;;;;;;;5002139;28;20451;-94
2021/10/21 02:44:25;;;;;;;126.93;30.27;;;;;;;;;;5001346;28;20448;-94
2021/10/21 02:46:53;;;;;;;118.13;30.00;;;;;;;;;;5002184;28;20453;-95
2021/10/21 02:49:20;;;;;;;158.67;31.23;;;;;;;;;;5002302;28;20460;-94
2021/10/21 02:51:46;;;;;;;128.70;30.97;;;;;;;;;;5002368;28;20496;-95
2021/10/21 02:54:13;;;;;;;113.63;29.60;;;;;;;;;;4994132;28;20933;-94
2021/10/21 02:56:39;;;;;;;114.87;31.07;;;;;;;;;;5003722;28;20453;-95
2021/10/21 02:59:06;;;;;;;105.50;30.47;;;;;;;;;;5003013;28;20523;-95
2021/10/21 03:01:32;;;;;;;117.53;32.90;;;;;;;;;;5001203;28;20480;-95
2021/10/21 03:04:00;;;;;;;122.83;34.13;;;;;;;;;;5001437;28;20467;-94
2021/10/21 03:06:27;;;;;;;137.43;36.17;;;;;;;;;;5002739;28;20488;-94
2021/10/21 03:08:53;;;;;;;180.60;37.70;;;;;;;;;;5002592;28;20487;-94
2021/10/21 03:11:20;;;;;;;268.70;42.80;;;;;;;;;;4997711;28;20540;-95
2021/10/21 03:13:46;;;;;;;359.60;46.07;;;;;;;;;;4996593;28;20511;-94
2021/10/21 03:16:13;;;;;;;229.67;41.37;;;;;;;;;;5002611;28;20484;-95
2021/10/21 03:18:39;;;;;;;233.63;39.37;;;;;;;;;;5001459;28;20504;-94
2021/10/21 03:21:07;;;;;;;193.87;39.10;;;;;;;;;;5002927;28;20464;-95
2021/10/21 03:23:33;;;;;;;191.07;37.07;;;;;;;;;;5002326;28;20469;-95
2021/10/21 03:26:00;;;;;;;122.63;35.23;;;;;;;;;;5002470;28;20445;-95
2021/10/21 03:28:27;;;;;;;127.23;35.50;;;;;;;;;;5002950;28;20500;-96
2021/10/21 03:30:54;;;;;;;117.53;36.40;;;;;;;;;;5003883;28;20481;-94
2021/10/21 03:33:20;;;;;;;128.37;34.20;;;;;;;;;;5003318;28;20453;-95
2021/10/21 03:35:47;;;;;;;119.97;37.17;;;;;;;;;;5002656;28;20456;-95
2021/10/21 03:38:15;;;;;;;120.03;36.80;;;;;;;;;;5003000;28;20507;-94
2021/10/21 03:40:41;;;;;;;114.93;35.70;;;;;;;;;;5001846;28;20540;-95
2021/10/21 03:43:07;;;;;;;109.40;35.70;;;;;;;;;;5001175;28;20503;-95
2021/10/21 03:45:35;;;;;;;126.13;37.30;;;;;;;;;;5001383;28;20452;-96
2021/10/21 03:48:01;;;;;;;111.90;32.70;;;;;;;;;;5001848;28;20512;-95
2021/10/21 03:50:29;;;;;;;118.57;36.60;;;;;;;;;;5003298;28;20452;-94
2021/10/21 03:52:55;;;;;;;130.27;36.73;;;;;;;;;;5002840;28;20489;-94
2021/10/21 03:55:23;;;;;;;139.93;38.10;;;;;;;;;;5002542;28;20488;-95
2021/10/21 03:57:50;;;;;;;176.93;39.23;;;;;;;;;;5002534;28;20445;-94
2021/10/21 04:00:16;;;;;;;137.87;37.13;;;;;;;;;;5001994;28;20496;-95
2021/10/21 04:02:43;;;;;;;149.27;35.70;;;;;;;;;;5002502;28;20453;-95
2021/10/21 04:05:10;;;;;;;274.20;43.67;;;;;;;;;;5002569;28;20528;-95
2021/10/21 04:07:36;;;;;;;177.57;35.03;;;;;;;;;;5002539;28;20515;-95
2021/10/21 04:10:03;;;;;;;300.03;36.80;;;;;;;;;;5002123;28;20465;-95
2021/10/21 04:12:32;;;;;;;195.97;33.97;;;;;;;;;;5003428;28;20480;-95
2021/10/21 04:14:58;;;;;;;166.67;35.43;;;;;;;;;;5003290;28;20488;-95
2021/10/21 04:17:25;;;;;;;223.70;35.57;;;;;;;;;;5002875;28;20548;-95
2021/10/21 04:19:51;;;;;;;226.13;34.17;;;;;;;;;;5003229;28;20492;-95
2021/10/21 04:22:18;;;;;;;177.10;33.00;;;;;;;;;;5002319;28;20468;-94
2021/10/21 04:24:44;;;;;;;179.63;33.90;;;;;;;;;;5002104;28;20555;-94
2021/10/21 04:27:10;;;;;;;214.00;35.23;;;;;;;;;;5000606;28;20448;-94
2021/10/21 04:29:38;;;;;;;200.57;33.80;;;;;;;;;;5000805;28;20452;-93
2021/10/21 04:32:05;;;;;;;234.13;34.63;;;;;;;;;;4999819;28;20457;-94
2021/10/21 04:34:32;;;;;;;201.50;35.03;;;;;;;;;;5001059;28;20445;-95
2021/10/21 04:37:00;;;;;;;176.60;33.57;;;;;;;;;;5002687;28;20500;-96
2021/10/21 04:39:26;;;;;;;185.23;33.40;;;;;;;;;;5005339;28;20499;-94
2021/10/21 04:41:53;;;;;;;157.17;33.20;;;;;;;;;;5000927;28;20453;-95
2021/10/21 04:44:20;;;;;;;201.17;32.40;;;;;;;;;;5000743;28;20455;-95
2021/10/21 04:46:48;;;;;;;121.00;30.10;;;;;;;;;;5002577;28;20457;-95
2021/10/21 04:49:14;;;;;;;130.43;30.93;;;;;;;;;;5001913;28;20437;-95
2021/10/21 04:51:41;;;;;;;145.37;31.23;;;;;;;;;;4994470;28;20467;-95
2021/10/21 04:54:07;;;;;;;159.77;32.77;;;;;;;;;;5004800;28;20571;-95
2021/10/21 04:56:34;;;;;;;156.73;33.07;;;;;;;;;;5008540;28;20453;-95
2021/10/21 04:59:00;;;;;;;144.70;32.33;;;;;;;;;;5005953;28;20504;-96
2021/10/21 05:01:27;;;;;;;194.90;35.00;;;;;;;;;;5004211;28;20468;-93
2021/10/21 05:03:56;;;;;;;213.70;36.07;;;;;;;;;;5006620;28;20457;-94
2021/10/21 05:06:22;;;;;;;215.60;37.80;;;;;;;;;;5005848;28;20453;-94
2021/10/21 05:08:49;;;;;;;239.40;38.60;;;;;;;;;;5005707;28;20459;-95
2021/10/21 05:11:15;;;;;;;213.40;37.77;;;;;;;;;;5005527;28;20491;-94
2021/10/21 05:13:42;;;;;;;148.03;34.43;;;;;;;;;;5006017;28;20453;-95
2021/10/21 05:16:08;;;;;;;184.03;38.00;;;;;;;;;;5008280;28;20941;-96
2021/10/21 05:18:35;;;;;;;198.63;34.13;;;;;;;;;;5006092;28;20480;-96
2021/10/21 05:21:03;;;;;;;227.03;38.40;;;;;;;;;;5012853;28;20451;-95
2021/10/21 05:23:29;;;;;;;197.33;38.70;;;;;;;;;;5009551;28;20491;-96
2021/10/21 05:25:56;;;;;;;168.80;36.47;;;;;;;;;;5013003;28;20464;-93
2021/10/21 05:28:33;;;;;;;247.37;37.30;;;;;;;;;;5013468;28;20487;-96
2021/10/21 06:08:15;;;;;;;203.53;35.60;;;;;;;;;;5241442;23;20262;-96
2021/10/21 06:10:41;;;;;;;236.73;36.27;;;;;;;;;;4965384;29;20458;-95
2021/10/21 06:13:08;;;;;;;209.23;35.80;;;;;;;;;;4975601;28;20457;-96
2021/10/21 06:15:34;;;;;;;158.67;35.10;;;;;;;;;;4987533;28;20456;-95
2021/10/21 06:18:04;;;;;;;144.57;36.00;;;;;;;;;;4985561;28;20449;-96
2021/10/21 06:20:30;;;;;;;176.07;37.60;;;;;;;;;;4980644;28;20497;-95
2021/10/21 06:22:57;;;;;;;233.00;37.57;;;;;;;;;;4971045;28;20470;-95
2021/10/21 06:25:25;;;;;;;177.23;35.80;;;;;;;;;;4964421;29;20463;-94
2021/10/21 06:27:51;;;;;;;218.17;39.83;;;;;;;;;;4971666;28;20478;-94
2021/10/21 06:30:18;;;;;;;163.40;34.57;;;;;;;;;;4970035;28;21015;-96
2021/10/21 06:32:45;;;;;;;146.63;36.13;;;;;;;;;;4965448;29;20454;-96
2021/10/21 06:35:15;;;;;;;157.37;37.63;;;;;;;;;;4960511;29;20531;-94
2021/10/21 06:37:41;;;;;;;217.77;39.67;;;;;;;;;;4960488;29;20493;-95
2021/10/21 06:40:08;;;;;;;166.40;37.47;;;;;;;;;;4963635;29;20489;-95
2021/10/21 06:42:36;;;;;;;147.60;39.77;;;;;;;;;;4969054;28;20450;-95
2021/10/21 06:45:03;;;;;;;210.37;40.90;;;;;;;;;;4985224;28;20512;-95
2021/10/21 06:47:29;;;;;;;214.00;41.60;;;;;;;;;;4986470;28;20450;-95
2021/10/21 06:49:56;;;;;;;157.73;41.50;;;;;;;;;;4972314;28;20447;-96
2021/10/21 06:52:23;;;;;;;204.00;40.63;;;;;;;;;;4968624;29;20462;-96
2021/10/21 06:54:49;;;;;;;148.80;37.87;;;;;;;;;;4966715;29;20458;-95
2021/10/21 06:57:17;;;;;;;189.60;39.10;;;;;;;;;;4965255;28;20527;-95
2021/10/21 06:59:45;;;;;;;209.57;41.37;;;;;;;;;;4984685;28;20485;-94
2021/10/21 07:02:14;;;;;;;175.97;38.30;;;;;;;;;;4984433;28;21220;-94
2021/10/21 07:04:40;;;;;;;127.70;37.07;;;;;;;;;;4987698;28;20440;-95
2021/10/21 07:07:07;;;;;;;267.93;41.13;;;;;;;;;;4986170;28;20516;-94
2021/10/21 07:09:33;;;;;;;202.73;39.30;;;;;;;;;;4965975;28;20490;-95
2021/10/21 07:12:00;;;;;;;173.30;37.87;;;;;;;;;;4965216;29;20478;-94
2021/10/21 07:14:26;;;;;;;166.67;38.37;;;;;;;;;;4982963;28;21187;-94
2021/10/21 07:16:54;;;;;;;193.77;41.57;;;;;;;;;;4982377;28;20453;-94
2021/10/21 07:19:22;;;;;;;229.47;42.03;;;;;;;;;;4979790;28;20537;-95
2021/10/21 07:21:48;;;;;;;170.23;38.23;;;;;;;;;;4964116;28;20482;-93
2021/10/21 07:24:15;;;;;;;140.63;38.93;;;;;;;;;;4967036;28;20454;-94
2021/10/21 07:26:42;;;;;;;182.90;41.80;;;;;;;;;;4974852;28;20470;-95
2021/10/21 07:29:09;;;;;;;141.80;40.30;;;;;;;;;;4972185;28;20458;-93
2021/10/21 07:31:35;;;;;;;187.07;42.20;;;;;;;;;;4963800;29;20550;-93
2021/10/21 07:34:03;;;;;;;127.43;39.10;;;;;;;;;;4963639;29;20455;-94
2021/10/21 07:36:30;;;;;;;142.07;39.00;;;;;;;;;;4963454;29;20485;-93
2021/10/21 07:38:56;;;;;;;143.40;37.27;;;;;;;;;;4963360;29;20494;-93
2021/10/21 07:41:27;;;;;;;140.20;36.77;;;;;;;;;;4964257;29;20498;-93
2021/10/21 07:43:53;;;;;;;142.07;36.00;;;;;;;;;;4978669;28;20483;-93
2021/10/21 07:46:20;;;;;;;128.67;40.60;;;;;;;;;;4983321;28;20450;-94
2021/10/21 07:48:46;;;;;;;133.57;38.40;;;;;;;;;;4966538;28;20483;-95
2021/10/21 07:51:14;;;;;;;129.13;39.50;;;;;;;;;;4961146;29;20460;-93
2021/10/21 07:53:41;;;;;;;138.13;40.40;;;;;;;;;;4962250;29;20467;-95
2021/10/21 07:56:07;;;;;;;128.20;39.40;;;;;;;;;;4961915;29;20843;-94
2021/10/21 07:58:34;;;;;;;123.60;36.57;;;;;;;;;;4970436;28;20450;-94
2021/10/21 08:01:00;;;;;;;123.33;37.80;;;;;;;;;;4982437;28;20502;-94
2021/10/21 08:03:27;;;;;;;120.87;38.20;;;;;;;;;;4983592;28;20461;-93
2021/10/21 08:05:55;;;;;;;128.40;39.90;;;;;;;;;;4968634;28;20479;-93
2021/10/21 08:08:24;;;;;;;119.73;36.50;;;;;;;;;;4961562;29;20487;-93
2021/10/21 08:10:50;;;;;;;126.00;39.43;;;;;;;;;;4963052;29;20463;-94
2021/10/21 08:13:17;;;;;;;119.20;39.20;;;;;;;;;;4973433;28;20454;-93
2021/10/21 08:15:43;;;;;;;116.07;38.30;;;;;;;;;;4983484;28;21413;-93
2021/10/21 08:18:11;;;;;;;112.37;37.40;;;;;;;;;;4978830;28;20471;-92
2021/10/21 08:20:38;;;;;;;125.60;40.47;;;;;;;;;;4975834;28;21401;-94
2021/10/21 08:23:05;;;;;;;118.20;38.60;;;;;;;;;;4962398;28;20460;-93
2021/10/21 08:25:32;;;;;;;116.67;38.80;;;;;;;;;;4970854;28;20459;-93
2021/10/21 08:28:00;;;;;;;114.20;37.10;;;;;;;;;;4966034;28;20464;-92
2021/10/21 08:30:26;;;;;;;112.80;39.30;;;;;;;;;;4978095;28;20946;-92
2021/10/21 08:32:54;;;;;;;115.30;37.30;;;;;;;;;;4986541;28;20463;-93
2021/10/21 08:35:21;;;;;;;113.20;38.33;;;;;;;;;;4986999;28;20473;-91
2021/10/21 08:37:47;;;;;;;115.40;39.20;;;;;;;;;;4986996;28;20478;-95
2021/10/21 08:40:15;;;;;;;120.87;39.23;;;;;;;;;;4966194;28;20507;-94
2021/10/21 08:42:44;;;;;;;117.47;39.90;;;;;;;;;;4964477;28;20478;-93
2021/10/21 08:45:10;;;;;;;116.10;38.60;;;;;;;;;;4977923;28;20452;-93
2021/10/21 08:47:38;;;;;;;117.30;39.50;;;;;;;;;;4974860;28;20461;-92
2021/10/21 08:50:06;;;;;;;116.63;38.07;;;;;;;;;;4978324;28;20447;-93
2021/10/21 08:52:42;;;;;;;117.63;40.23;;;;;;;;;;4967859;28;20496;-94
2021/10/21 08:55:09;;;;;;;115.37;39.87;;;;;;;;;;4973824;28;20546;-95
2021/10/21 08:57:37;;;;;;;109.40;36.40;;;;;;;;;;4968358;28;20487;-96
2021/10/21 09:03:15;;;;;;;113.33;37.67;;;;;;;;;;5096857;23;20487;-95
2021/10/21 09:05:57;;;;;;;106.17;38.37;;;;;;;;;;5010800;28;20468;-95
2021/10/21 09:11:33;;;;;;;94.90;27.83;;;;;;;;;;5008563;28;20535;-96
2021/10/21 09:14:14;;;;;;;89.97;26.40;;;;;;;;;;4999560;23;20492;-96
2021/10/21 09:16:41;;;;;;;92.27;29.00;;;;;;;;;;5016213;28;20476;-96
2021/10/21 09:19:16;;;;;;;91.40;27.70;;;;;;;;;;5016992;28;20425;-96
2021/10/21 09:21:45;;;;;;;93.77;25.13;;;;;;;;;;5001853;28;20476;-96
2021/10/21 09:24:35;;;;;;;85.77;25.40;;;;;;;;;;5000648;28;20461;-96
2021/10/21 09:29:48;;;;;;;85.37;23.47;;;;;;;;;;5010813;28;20476;-96
2021/10/21 09:32:27;;;;;;;98.10;25.60;;;;;;;;;;5009164;28;20504;-96
2021/10/21 09:34:59;;;;;;;82.37;23.10;;;;;;;;;;5014078;28;20452;-96
2021/10/21 09:37:27;;;;;;;82.17;24.50;;;;;;;;;;5005535;28;20449;-94
2021/10/21 09:39:55;;;;;;;83.17;25.40;;;;;;;;;;5005834;28;20465;-95
2021/10/21 09:42:26;;;;;;;83.97;24.90;;;;;;;;;;5001537;28;20504;-96
2021/10/21 09:45:10;;;;;;;84.83;23.90;;;;;;;;;;5007905;28;20445;-95
2021/10/21 09:47:37;;;;;;;83.93;24.40;;;;;;;;;;5007688;28;20467;-95
2021/10/21 09:50:16;;;;;;;84.43;24.53;;;;;;;;;;5010298;28;20449;-94
2021/10/21 09:53:01;;;;;;;84.87;24.53;;;;;;;;;;5006726;28;20459;-95
2021/10/21 09:55:28;;;;;;;81.70;23.83;;;;;;;;;;4999847;28;20460;-95
2021/10/21 10:00:39;;;;;;;83.53;24.27;;;;;;;;;;5005421;28;20494;-93
2021/10/21 10:03:07;;;;;;;84.00;25.23;;;;;;;;;;4992776;28;20504;-93
2021/10/21 10:05:36;;;;;;;84.40;24.67;;;;;;;;;;4993501;28;20464;-93
2021/10/21 10:08:19;;;;;;;80.90;24.20;;;;;;;;;;5028562;28;20452;-94
2021/10/21 10:10:46;;;;;;;84.03;23.47;;;;;;;;;;5014700;28;20468;-95
2021/10/21 10:13:15;;;;;;;81.70;23.00;;;;;;;;;;5003985;28;20460;-95
2021/10/21 10:15:44;;;;;;;81.77;22.40;;;;;;;;;;5006071;28;20457;-94
2021/10/21 10:18:27;;;;;;;81.20;23.10;;;;;;;;;;5003123;28;20479;-96
2021/10/21 10:21:04;;;;;;;83.93;24.10;;;;;;;;;;5003585;28;20492;-94
2021/10/21 10:23:32;;;;;;;83.40;23.93;;;;;;;;;;5004340;28;20445;-94
2021/10/21 10:25:58;;;;;;;79.07;23.43;;;;;;;;;;5005379;28;20502;-93
2021/10/21 10:28:25;;;;;;;81.30;23.40;;;;;;;;;;5004661;28;20510;-93
2021/10/21 10:30:52;;;;;;;83.87;24.17;;;;;;;;;;5005447;28;20466;-94
2021/10/21 10:33:39;;;;;;;81.80;24.33;;;;;;;;;;5005910;28;20450;-94
2021/10/21 10:36:26;;;;;;;79.90;23.80;;;;;;;;;;5007230;28;20449;-94
2021/10/21 10:38:56;;;;;;;77.70;22.23;;;;;;;;;;5008760;28;20439;-96
2021/10/21 10:41:41;;;;;;;82.33;23.13;;;;;;;;;;5007140;28;20521;-95
2021/10/21 10:44:08;;;;;;;78.97;22.90;;;;;;;;;;5004325;28;20959;-95
2021/10/21 10:46:51;;;;;;;78.13;23.10;;;;;;;;;;5006157;28;20466;-96
2021/10/21 10:49:32;;;;;;;82.40;23.50;;;;;;;;;;5004786;28;20525;-92
2021/10/21 10:52:00;;;;;;;81.90;23.40;;;;;;;;;;5005194;28;20476;-96
2021/10/21 10:54:52;;;;;;;77.70;23.63;;;;;;;;;;5003698;28;20451;-96
2021/10/21 10:57:50;;;;;;;77.17;23.00;;;;;;;;;;5004184;28;20459;-93
2021/10/21 11:00:31;;;;;;;77.37;20.93;;;;;;;;;;5004077;28;21069;-94
2021/10/21 11:02:58;;;;;;;78.17;21.80;;;;;;;;;;5004510;28;20455;-94
2021/10/21 11:05:45;;;;;;;82.13;23.57;;;;;;;;;;5005187;28;20442;-96
2021/10/21 11:08:15;;;;;;;77.97;22.40;;;;;;;;;;5005863;28;20479;-95
2021/10/21 11:10:42;;;;;;;77.97;22.70;;;;;;;;;;5004036;28;20509;-95
2021/10/21 11:13:19;;;;;;;82.17;23.00;;;;;;;;;;5004607;28;20467;-94
2021/10/21 11:15:46;;;;;;;81.53;23.47;;;;;;;;;;5004118;28;20464;-94
2021/10/21 11:18:21;;;;;;;78.70;23.13;;;;;;;;;;5004115;28;20445;-94
2021/10/21 11:20:49;;;;;;;77.50;21.37;;;;;;;;;;5005221;28;20484;-96
2021/10/21 11:23:31;;;;;;;78.27;23.30;;;;;;;;;;5005216;28;20965;-95
2021/10/21 11:26:02;;;;;;;77.50;21.40;;;;;;;;;;4999964;28;20503;-92
2021/10/21 11:28:29;;;;;;;77.67;22.50;;;;;;;;;;5004061;28;20470;-94
2021/10/21 11:30:58;;;;;;;74.47;19.27;;;;;;;;;;5008608;28;20483;-96
2021/10/21 11:33:26;;;;;;;74.87;21.17;;;;;;;;;;5005796;28;20515;-94
2021/10/21 11:35:53;;;;;;;76.70;21.67;;;;;;;;;;5009454;28;20461;-94
2021/10/21 11:38:23;;;;;;;78.13;22.33;;;;;;;;;;5007215;28;20460;-93
2021/10/21 11:40:50;;;;;;;76.87;22.57;;;;;;;;;;5007557;28;20484;-93
2021/10/21 11:43:22;;;;;;;77.47;22.63;;;;;;;;;;5006951;28;20514;-96
2021/10/21 11:45:53;;;;;;;77.27;21.57;;;;;;;;;;5006404;28;20527;-96
2021/10/21 11:48:20;;;;;;;78.67;24.07;;;;;;;;;;5005708;28;20444;-94
2021/10/21 11:50:52;;;;;;;77.30;21.90;;;;;;;;;;5005797;28;20460;-96
2021/10/21 11:53:20;;;;;;;75.57;20.67;;;;;;;;;;4987487;28;20445;-95
2021/10/21 11:55:49;;;;;;;78.77;23.20;;;;;;;;;;5005790;28;20471;-96
2021/10/21 11:58:16;;;;;;;78.60;22.57;;;;;;;;;;5003048;28;20452;-94
2021/10/21 12:00:48;;;;;;;76.57;22.53;;;;;;;;;;5007005;28;21141;-94
2021/10/21 12:03:18;;;;;;;76.97;23.43;;;;;;;;;;5024969;28;20450;-91
2021/10/21 12:05:46;;;;;;;77.37;22.37;;;;;;;;;;5023713;28;20463;-91
2021/10/21 12:08:20;;;;;;;77.47;22.90;;;;;;;;;;5024061;28;20486;-95
2021/10/21 12:11:09;;;;;;;76.50;22.33;;;;;;;;;;5015730;28;20465;-95
2021/10/21 12:13:36;;;;;;;80.50;21.30;;;;;;;;;;5004503;28;20467;-95
2021/10/21 12:16:09;;;;;;;78.50;22.10;;;;;;;;;;5004144;28;20724;-92
2021/10/21 12:18:38;;;;;;;77.07;22.80;;;;;;;;;;5005130;28;20497;-92
2021/10/21 12:21:06;;;;;;;77.67;22.97;;;;;;;;;;5006275;28;20547;-92
2021/10/21 12:23:33;;;;;;;75.90;22.57;;;;;;;;;;5009039;28;20492;-95
2021/10/21 12:26:01;;;;;;;78.67;23.13;;;;;;;;;;5001513;28;20497;-94
2021/10/21 12:28:36;;;;;;;77.63;23.67;;;;;;;;;;5001040;28;20463;-92
2021/10/21 12:31:16;;;;;;;79.47;23.33;;;;;;;;;;5002902;28;20540;-94
2021/10/21 12:33:49;;;;;;;79.53;23.77;;;;;;;;;;5002076;28;20496;-92
2021/10/21 12:36:20;;;;;;;78.10;22.20;;;;;;;;;;5002538;28;20515;-94
2021/10/21 12:38:50;;;;;;;77.77;23.40;;;;;;;;;;5000405;28;20455;-93
2021/10/21 12:41:21;;;;;;;76.40;22.83;;;;;;;;;;5000572;28;20519;-95
2021/10/21 12:44:29;;;;;;;76.00;22.57;;;;;;;;;;5000388;28;20453;-96
2021/10/21 12:55:24;;;;;;;79.43;24.13;;;;;;;;;;4963551;28;20474;-94
2021/10/21 12:57:53;;;;;;;78.70;25.10;;;;;;;;;;4970730;28;20463;-96
2021/10/21 13:00:30;;;;;;;77.70;23.53;;;;;;;;;;5014997;23;20533;-96
2021/10/21 13:03:04;;;;;;;76.77;23.60;;;;;;;;;;4987433;28;20572;-96
2021/10/21 13:06:00;;;;;;;76.60;22.70;;;;;;;;;;4997360;28;20451;-96
2021/10/21 13:08:27;;;;;;;76.87;23.13;;;;;;;;;;4981892;28;20435;-95
2021/10/21 13:10:56;;;;;;;76.47;22.17;;;;;;;;;;4988022;28;20525;-93
2021/10/21 13:13:23;;;;;;;74.87;22.17;;;;;;;;;;4984166;28;20896;-96
2021/10/21 13:15:49;;;;;;;77.60;22.90;;;;;;;;;;4990292;28;20843;-92
2021/10/21 13:18:19;;;;;;;79.70;23.10;;;;;;;;;;4985467;28;20467;-95
2021/10/21 13:20:45;;;;;;;77.97;24.13;;;;;;;;;;4988170;28;20447;-95
2021/10/21 13:23:12;;;;;;;77.07;23.40;;;;;;;;;;4989134;28;20453;-96
2021/10/21 13:25:39;;;;;;;79.90;24.63;;;;;;;;;;4984988;28;20454;-95
2021/10/21 13:28:07;;;;;;;79.97;23.13;;;;;;;;;;4984801;28;20477;-91
2021/10/21 13:30:34;;;;;;;77.30;23.13;;;;;;;;;;4984489;28;20553;-94
2021/10/21 13:33:08;;;;;;;77.47;23.47;;;;;;;;;;4987121;28;20527;-95
2021/10/21 13:35:35;;;;;;;77.17;23.77;;;;;;;;;;5005337;28;20444;-94
2021/10/21 13:38:03;;;;;;;77.30;23.50;;;;;;;;;;5001080;28;20469;-92
2021/10/21 13:40:30;;;;;;;79.33;23.67;;;;;;;;;;4991469;28;20442;-94
2021/10/21 13:42:56;;;;;;;76.47;22.70;;;;;;;;;;4983834;28;20572;-96
2021/10/21 13:45:24;;;;;;;79.97;23.17;;;;;;;;;;4987354;28;20527;-93
2021/10/21 13:47:51;;;;;;;77.90;22.70;;;;;;;;;;4992201;28;20450;-93
2021/10/21 13:50:17;;;;;;;79.10;23.90;;;;;;;;;;5004731;28;20461;-92
2021/10/21 13:52:47;;;;;;;81.07;25.30;;;;;;;;;;5004699;28;20452;-96
2021/10/21 13:55:16;;;;;;;79.50;23.87;;;;;;;;;;5002789;28;20456;-93
2021/10/21 13:57:43;;;;;;;78.90;24.40;;;;;;;;;;4982184;28;20513;-94
2021/10/21 14:00:13;;;;;;;80.37;24.13;;;;;;;;;;4986257;28;21218;-95
2021/10/21 14:02:42;;;;;;;79.30;24.90;;;;;;;;;;4986630;28;20544;-95
2021/10/21 14:05:09;;;;;;;79.77;24.47;;;;;;;;;;4986179;28;21214;-92
2021/10/21 14:07:37;;;;;;;79.33;24.07;;;;;;;;;;4985858;28;20516;-95
2021/10/21 14:10:04;;;;;;;80.57;24.17;;;;;;;;;;4985205;28;20775;-95
2021/10/21 14:12:30;;;;;;;79.00;23.40;;;;;;;;;;4986806;28;20464;-94
2021/10/21 14:14:57;;;;;;;82.33;25.33;;;;;;;;;;4978808;28;20486;-94
2021/10/21 14:17:24;;;;;;;80.70;25.07;;;;;;;;;;4968009;29;20447;-94
2021/10/21 14:19:57;;;;;;;83.70;24.37;;;;;;;;;;4967719;29;20454;-96
2021/10/21 14:22:24;;;;;;;82.87;26.40;;;;;;;;;;4966906;29;20509;-94
2021/10/21 14:24:50;;;;;;;80.90;25.00;;;;;;;;;;4965982;29;20971;-92
2021/10/21 14:27:18;;;;;;;81.63;23.20;;;;;;;;;;4976587;28;20555;-95
2021/10/21 14:29:45;;;;;;;80.80;25.20;;;;;;;;;;4985362;28;20470;-93
2021/10/21 14:32:11;;;;;;;83.00;25.80;;;;;;;;;;4986134;28;20478;-96
2021/10/21 14:38:04;;;;;;;81.07;23.80;;;;;;;;;;4887618;29;20450;-93
2021/10/21 14:40:32;;;;;;;82.83;24.73;;;;;;;;;;4939273;29;20515;-93
2021/10/21 14:46:39;;;;;;;84.93;25.70;;;;;;;;;;4821964;29;20496;-94
2021/10/21 14:49:11;;;;;;;83.30;25.87;;;;;;;;;;4813880;29;20459;-94
2021/10/21 14:51:38;;;;;;;80.87;24.10;;;;;;;;;;4859582;29;20598;-95
2021/10/21 14:54:05;;;;;;;80.93;25.50;;;;;;;;;;4965540;29;20453;-94
2021/10/21 14:56:35;;;;;;;83.87;25.53;;;;;;;;;;4964627;28;20458;-94
2021/10/21 14:59:03;;;;;;;83.67;25.30;;;;;;;;;;4998026;28;20491;-93
2021/10/21 15:01:33;;;;;;;84.90;25.03;;;;;;;;;;4992414;28;20482;-96
2021/10/21 15:04:02;;;;;;;81.27;24.63;;;;;;;;;;4986062;28;20449;-96
2021/10/21 15:06:47;;;;;;;87.10;25.67;;;;;;;;;;4986111;28;20468;-93
2021/10/21 15:09:28;;;;;;;83.70;25.97;;;;;;;;;;4992108;28;21025;-93
2021/10/21 15:22:52;;;;;;;85.93;26.47;;;;;;;;;;4985414;28;20493;-94
2021/10/21 15:25:19;;;;;;;85.67;26.13;;;;;;;;;;4990056;28;20456;-94
2021/10/21 15:27:47;;;;;;;85.70;26.80;;;;;;;;;;4994365;28;20465;-92
2021/10/21 15:30:14;;;;;;;86.23;26.80;;;;;;;;;;4982224;28;20450;-93
2021/10/21 15:32:40;;;;;;;85.20;26.37;;;;;;;;;;4981830;28;20906;-93
2021/10/21 15:35:08;;;;;;;87.57;27.17;;;;;;;;;;4979457;28;20458;-92